sensor_id;sensor_type;location;lat;lon;timestamp;pressure;altitude;pressure_sealevel;temperature;humidity
44481;BME280;30184;42.018;23.670;2023-06-10T00:01:25;91197.31;;;13.93;96.33
44481;BME280;30184;42.018;23.670;2023-06-10T00:03:55;91203.97;;;13.92;96.32
44481;BME280;30184;42.018;23.670;2023-06-10T00:06:26;91187.34;;;13.90;96.32
44481;BME280;30184;42.018;23.670;2023-06-10T00:08:56;91191.72;;;13.87;96.16
44481;BME280;30184;42.018;23.670;2023-06-10T00:11:25;91204.75;;;13.83;96.49
44481;BME280;30184;42.018;23.670;2023-06-10T00:13:54;91197.50;;;13.80;96.58
44481;BME280;30184;42.018;23.670;2023-06-10T00:16:24;91189.38;;;13.53;96.53
44481;BME280;30184;42.018;23.670;2023-06-10T00:18:54;91197.34;;;13.74;96.60
44481;BME280;30184;42.018;23.670;2023-06-10T00:21:31;91194.50;;;13.69;96.69
44481;BME280;30184;42.018;23.670;2023-06-10T00:24:05;91200.84;;;13.66;96.55
44481;BME280;30184;42.018;23.670;2023-06-10T00:26:39;91199.50;;;13.61;96.72
44481;BME280;30184;42.018;23.670;2023-06-10T00:29:10;91193.13;;;13.55;96.80
44481;BME280;30184;42.018;23.670;2023-06-10T00:31:40;91195.28;;;13.51;96.64
44481;BME280;30184;42.018;23.670;2023-06-10T00:34:10;91199.38;;;13.47;96.81
44481;BME280;30184;42.018;23.670;2023-06-10T00:36:40;91205.00;;;13.43;97.10
44481;BME280;30184;42.018;23.670;2023-06-10T00:39:11;91201.19;;;13.40;97.26
44481;BME280;30184;42.018;23.670;2023-06-10T00:41:40;91210.28;;;13.37;97.43
44481;BME280;30184;42.018;23.670;2023-06-10T00:44:11;91206.19;;;13.33;98.05
44481;BME280;30184;42.018;23.670;2023-06-10T00:46:40;91131.56;;;12.85;97.80
44481;BME280;30184;42.018;23.670;2023-06-10T00:49:10;91187.72;;;13.28;98.16
44481;BME280;30184;42.018;23.670;2023-06-10T00:51:41;91195.91;;;13.19;98.33
44481;BME280;30184;42.018;23.670;2023-06-10T00:54:10;91179.06;;;13.02;98.05
44481;BME280;30184;42.018;23.670;2023-06-10T00:56:42;91200.25;;;13.07;98.55
44481;BME280;30184;42.018;23.670;2023-06-10T00:59:11;91201.75;;;13.08;98.51
44481;BME280;30184;42.018;23.670;2023-06-10T01:01:42;91205.69;;;13.07;98.51
44481;BME280;30184;42.018;23.670;2023-06-10T01:04:15;91202.06;;;13.01;99.26
44481;BME280;30184;42.018;23.670;2023-06-10T01:06:54;91209.94;;;12.99;99.24
44481;BME280;30184;42.018;23.670;2023-06-10T01:09:32;91196.47;;;12.86;98.85
44481;BME280;30184;42.018;23.670;2023-06-10T01:12:08;91207.34;;;12.86;98.86
44481;BME280;30184;42.018;23.670;2023-06-10T01:14:40;91215.53;;;12.86;98.62
44481;BME280;30184;42.018;23.670;2023-06-10T01:17:12;91207.50;;;12.83;98.63
44481;BME280;30184;42.018;23.670;2023-06-10T01:19:44;91206.72;;;12.82;98.68
44481;BME280;30184;42.018;23.670;2023-06-10T01:22:25;91215.78;;;12.79;98.96
44481;BME280;30184;42.018;23.670;2023-06-10T01:24:56;91214.75;;;12.77;98.91
44481;BME280;30184;42.018;23.670;2023-06-10T01:27:30;91193.50;;;12.53;98.66
44481;BME280;30184;42.018;23.670;2023-06-10T01:30:06;91182.31;;;12.51;98.63
44481;BME280;30184;42.018;23.670;2023-06-10T01:32:40;91207.78;;;12.66;98.28
44481;BME280;30184;42.018;23.670;2023-06-10T01:35:12;91208.81;;;12.60;98.55
44481;BME280;30184;42.018;23.670;2023-06-10T01:37:46;91203.19;;;12.54;98.50
44481;BME280;30184;42.018;23.670;2023-06-10T01:40:16;91204.72;;;12.55;98.65
44481;BME280;30184;42.018;23.670;2023-06-10T01:42:46;91202.75;;;12.56;98.80
44481;BME280;30184;42.018;23.670;2023-06-10T01:45:16;91195.78;;;12.55;98.93
44481;BME280;30184;42.018;23.670;2023-06-10T01:47:46;91198.50;;;12.55;98.98
44481;BME280;30184;42.018;23.670;2023-06-10T01:50:16;91193.84;;;12.55;98.83
44481;BME280;30184;42.018;23.670;2023-06-10T01:52:47;91200.91;;;12.53;99.00
44481;BME280;30184;42.018;23.670;2023-06-10T01:55:16;91189.09;;;12.38;99.00
44481;BME280;30184;42.018;23.670;2023-06-10T01:57:46;91197.00;;;12.54;99.10
44481;BME280;30184;42.018;23.670;2023-06-10T02:00:16;91215.16;;;12.57;99.04
44481;BME280;30184;42.018;23.670;2023-06-10T02:02:45;91209.41;;;12.55;98.96
44481;BME280;30184;42.018;23.670;2023-06-10T02:05:15;91207.13;;;12.53;99.45
44481;BME280;30184;42.018;23.670;2023-06-10T02:07:45;91210.28;;;12.52;99.38
44481;BME280;30184;42.018;23.670;2023-06-10T02:10:16;91206.38;;;12.53;99.22
44481;BME280;30184;42.018;23.670;2023-06-10T02:12:46;91206.38;;;12.53;99.22
44481;BME280;30184;42.018;23.670;2023-06-10T02:15:15;91199.72;;;12.54;99.17
44481;BME280;30184;42.018;23.670;2023-06-10T02:17:47;91202.75;;;12.56;99.28
44481;BME280;30184;42.018;23.670;2023-06-10T02:20:17;91206.84;;;12.60;99.50
44481;BME280;30184;42.018;23.670;2023-06-10T02:22:46;91209.41;;;12.64;99.54
44481;BME280;30184;42.018;23.670;2023-06-10T02:25:17;91204.28;;;12.66;99.75
44481;BME280;30184;42.018;23.670;2023-06-10T02:27:46;91208.09;;;12.68;100.00
44481;BME280;30184;42.018;23.670;2023-06-10T02:30:16;91211.84;;;12.71;99.86
44481;BME280;30184;42.018;23.670;2023-06-10T02:32:46;91198.09;;;12.65;99.81
44481;BME280;30184;42.018;23.670;2023-06-10T02:35:17;91212.16;;;12.73;99.79
44481;BME280;30184;42.018;23.670;2023-06-10T02:37:48;91204.75;;;12.74;99.67
44481;BME280;30184;42.018;23.670;2023-06-10T02:40:20;91205.06;;;12.76;99.65
44481;BME280;30184;42.018;23.670;2023-06-10T02:42:50;91203.41;;;12.78;99.65
44481;BME280;30184;42.018;23.670;2023-06-10T02:45:19;91163.13;;;12.55;99.74
44481;BME280;30184;42.018;23.670;2023-06-10T02:47:49;91199.31;;;12.83;99.77
44481;BME280;30184;42.018;23.670;2023-06-10T02:50:18;91203.88;;;12.86;99.57
44481;BME280;30184;42.018;23.670;2023-06-10T02:53:11;91204.91;;;12.88;99.44
44481;BME280;30184;42.018;23.670;2023-06-10T02:55:46;91164.81;;;12.61;98.63
44481;BME280;30184;42.018;23.670;2023-06-10T02:58:18;91210.22;;;12.83;98.27
44481;BME280;30184;42.018;23.670;2023-06-10T03:00:47;91199.44;;;12.70;98.21
44481;BME280;30184;42.018;23.670;2023-06-10T03:03:17;91205.81;;;12.76;98.41
44481;BME280;30184;42.018;23.670;2023-06-10T03:05:58;91202.66;;;12.78;98.87
44481;BME280;30184;42.018;23.670;2023-06-10T03:08:28;91199.00;;;12.81;99.29
44481;BME280;30184;42.018;23.670;2023-06-10T03:11:01;91211.28;;;12.85;99.35
44481;BME280;30184;42.018;23.670;2023-06-10T03:13:32;91179.50;;;12.73;99.38
44481;BME280;30184;42.018;23.670;2023-06-10T03:16:03;91190.56;;;12.79;98.89
44481;BME280;30184;42.018;23.670;2023-06-10T03:18:36;91202.06;;;12.92;98.45
44481;BME280;30184;42.018;23.670;2023-06-10T03:21:06;91205.84;;;12.94;98.62
44481;BME280;30184;42.018;23.670;2023-06-10T03:23:37;91204.47;;;12.99;99.07
44481;BME280;30184;42.018;23.670;2023-06-10T03:26:08;91187.53;;;12.95;99.37
44481;BME280;30184;42.018;23.670;2023-06-10T03:28:40;91194.50;;;13.05;99.43
44481;BME280;30184;42.018;23.670;2023-06-10T03:31:10;91204.34;;;13.12;99.29
44481;BME280;30184;42.018;23.670;2023-06-10T03:33:39;91198.31;;;13.17;99.18
44481;BME280;30184;42.018;23.670;2023-06-10T03:36:09;91191.97;;;13.20;98.80
44481;BME280;30184;42.018;23.670;2023-06-10T03:38:39;91157.59;;;12.95;97.60
44481;BME280;30184;42.018;23.670;2023-06-10T03:41:10;91183.00;;;13.10;97.09
44481;BME280;30184;42.018;23.670;2023-06-10T03:43:42;91206.97;;;13.15;96.92
44481;BME280;30184;42.018;23.670;2023-06-10T03:46:13;91194.22;;;13.12;97.03
44481;BME280;30184;42.018;23.670;2023-06-10T03:48:43;91146.38;;;12.75;97.04
44481;BME280;30184;42.018;23.670;2023-06-10T03:51:13;91121.25;;;12.61;97.20
44481;BME280;30184;42.018;23.670;2023-06-10T03:53:42;91209.50;;;13.19;97.35
44481;BME280;30184;42.018;23.670;2023-06-10T03:56:13;91213.75;;;13.20;97.47
44481;BME280;30184;42.018;23.670;2023-06-10T03:58:43;91212.84;;;13.23;97.18
44481;BME280;30184;42.018;23.670;2023-06-10T04:01:14;91215.91;;;13.25;97.13
44481;BME280;30184;42.018;23.670;2023-06-10T04:03:45;91220.28;;;13.22;97.68
44481;BME280;30184;42.018;23.670;2023-06-10T04:06:16;91209.50;;;13.28;97.54
44481;BME280;30184;42.018;23.670;2023-06-10T04:08:46;91208.94;;;13.15;97.38
44481;BME280;30184;42.018;23.670;2023-06-10T04:11:16;91209.97;;;13.35;97.36
44481;BME280;30184;42.018;23.670;2023-06-10T04:13:46;91225.41;;;13.38;97.09
44481;BME280;30184;42.018;23.670;2023-06-10T04:16:16;91214.38;;;13.42;96.73
44481;BME280;30184;42.018;23.670;2023-06-10T04:18:47;91217.56;;;13.31;96.73
44481;BME280;30184;42.018;23.670;2023-06-10T04:21:17;91207.22;;;13.44;96.77
44481;BME280;30184;42.018;23.670;2023-06-10T04:23:48;91142.59;;;13.08;96.54
44481;BME280;30184;42.018;23.670;2023-06-10T04:26:20;91179.06;;;13.48;96.23
44481;BME280;30184;42.018;23.670;2023-06-10T04:28:51;91208.69;;;13.82;95.90
44481;BME280;30184;42.018;23.670;2023-06-10T04:31:21;91206.84;;;13.97;95.50
44481;BME280;30184;42.018;23.670;2023-06-10T04:33:51;91208.78;;;14.15;94.26
44481;BME280;30184;42.018;23.670;2023-06-10T04:36:21;91183.53;;;14.29;93.26
44481;BME280;30184;42.018;23.670;2023-06-10T04:38:51;91229.41;;;14.58;92.48
44481;BME280;30184;42.018;23.670;2023-06-10T04:41:23;91217.91;;;14.78;91.21
44481;BME280;30184;42.018;23.670;2023-06-10T04:43:54;91195.59;;;15.03;89.83
44481;BME280;30184;42.018;23.670;2023-06-10T04:46:25;91195.28;;;15.25;88.53
44481;BME280;30184;42.018;23.670;2023-06-10T04:48:55;91188.63;;;15.41;86.46
44481;BME280;30184;42.018;23.670;2023-06-10T04:51:24;91191.63;;;15.66;86.05
44481;BME280;30184;42.018;23.670;2023-06-10T04:53:54;91205.41;;;15.87;85.34
44481;BME280;30184;42.018;23.670;2023-06-10T04:56:25;91173.72;;;16.10;83.65
44481;BME280;30184;42.018;23.670;2023-06-10T04:58:54;91181.25;;;16.15;82.33
44481;BME280;30184;42.018;23.670;2023-06-10T05:01:23;91179.94;;;16.39;81.70
44481;BME280;30184;42.018;23.670;2023-06-10T05:03:53;91180.44;;;16.58;80.54
44481;BME280;30184;42.018;23.670;2023-06-10T05:06:22;91180.72;;;16.75;80.08
44481;BME280;30184;42.018;23.670;2023-06-10T05:08:51;91172.88;;;17.03;79.20
44481;BME280;30184;42.018;23.670;2023-06-10T05:11:21;91172.94;;;17.29;77.86
44481;BME280;30184;42.018;23.670;2023-06-10T05:13:52;91165.00;;;17.57;76.44
44481;BME280;30184;42.018;23.670;2023-06-10T05:16:22;91172.81;;;17.84;75.96
44481;BME280;30184;42.018;23.670;2023-06-10T05:18:51;91166.78;;;18.06;73.80
44481;BME280;30184;42.018;23.670;2023-06-10T05:21:20;91197.22;;;18.34;73.40
44481;BME280;30184;42.018;23.670;2023-06-10T05:23:50;91159.00;;;18.61;73.34
44481;BME280;30184;42.018;23.670;2023-06-10T05:26:19;91157.06;;;18.73;72.28
44481;BME280;30184;42.018;23.670;2023-06-10T05:28:48;91153.22;;;19.02;71.86
44481;BME280;30184;42.018;23.670;2023-06-10T05:31:19;91152.06;;;19.20;70.90
44481;BME280;30184;42.018;23.670;2023-06-10T05:33:49;91045.38;;;18.70;70.51
44481;BME280;30184;42.018;23.670;2023-06-10T05:36:18;91138.91;;;19.41;69.56
44481;BME280;30184;42.018;23.670;2023-06-10T05:38:47;91147.50;;;19.59;68.65
44481;BME280;30184;42.018;23.670;2023-06-10T05:41:17;91152.06;;;19.85;68.90
44481;BME280;30184;42.018;23.670;2023-06-10T05:43:46;91143.81;;;20.12;67.62
44481;BME280;30184;42.018;23.670;2023-06-10T05:46:15;91131.56;;;20.30;67.93
44481;BME280;30184;42.018;23.670;2023-06-10T05:48:46;91142.09;;;20.48;66.17
44481;BME280;30184;42.018;23.670;2023-06-10T05:51:15;91139.38;;;20.65;66.04
44481;BME280;30184;42.018;23.670;2023-06-10T05:53:44;91129.03;;;20.77;65.48
44481;BME280;30184;42.018;23.670;2023-06-10T05:56:14;91128.50;;;20.95;64.43
44481;BME280;30184;42.018;23.670;2023-06-10T05:58:43;91121.47;;;21.05;63.20
44481;BME280;30184;42.018;23.670;2023-06-10T06:01:13;91146.00;;;21.14;63.22
44481;BME280;30184;42.018;23.670;2023-06-10T06:03:42;91116.66;;;21.22;62.26
44481;BME280;30184;42.018;23.670;2023-06-10T06:06:13;91112.69;;;21.18;61.74
44481;BME280;30184;42.018;23.670;2023-06-10T06:08:42;91112.44;;;21.21;61.24
44481;BME280;30184;42.018;23.670;2023-06-10T06:11:12;91105.88;;;21.25;62.12
44481;BME280;30184;42.018;23.670;2023-06-10T06:13:41;91137.75;;;21.20;61.47
44481;BME280;30184;42.018;23.670;2023-06-10T06:16:10;91102.88;;;21.22;61.74
44481;BME280;30184;42.018;23.670;2023-06-10T06:18:40;91101.88;;;21.26;61.12
44481;BME280;30184;42.018;23.670;2023-06-10T06:21:09;91045.28;;;20.91;60.83
44481;BME280;30184;42.018;23.670;2023-06-10T06:23:39;91101.41;;;21.21;63.36
44481;BME280;30184;42.018;23.670;2023-06-10T06:26:08;91093.78;;;21.39;63.21
44481;BME280;30184;42.018;23.670;2023-06-10T06:28:37;91079.03;;;21.31;61.24
44481;BME280;30184;42.018;23.670;2023-06-10T06:31:07;91093.47;;;21.53;61.83
44481;BME280;30184;42.018;23.670;2023-06-10T06:33:36;91088.63;;;21.65;59.87
44481;BME280;30184;42.018;23.670;2023-06-10T06:36:05;91079.50;;;21.81;60.77
44481;BME280;30184;42.018;23.670;2023-06-10T06:38:35;91087.47;;;21.90;56.54
44481;BME280;30184;42.018;23.670;2023-06-10T06:41:06;91041.31;;;21.85;56.65
44481;BME280;30184;42.018;23.670;2023-06-10T06:43:35;91072.47;;;22.21;55.63
44481;BME280;30184;42.018;23.670;2023-06-10T06:46:23;91075.78;;;22.44;54.39
44481;BME280;30184;42.018;23.670;2023-06-10T06:48:52;91061.81;;;22.61;52.57
44481;BME280;30184;42.018;23.670;2023-06-10T06:51:22;91057.06;;;22.86;52.62
44481;BME280;30184;42.018;23.670;2023-06-10T06:53:51;91053.00;;;23.11;51.60
44481;BME280;30184;42.018;23.670;2023-06-10T06:56:23;91057.81;;;23.29;50.63
44481;BME280;30184;42.018;23.670;2023-06-10T06:58:54;91046.06;;;23.23;49.11
44481;BME280;30184;42.018;23.670;2023-06-10T07:01:24;91029.34;;;23.10;50.58
44481;BME280;30184;42.018;23.670;2023-06-10T07:03:53;91039.47;;;23.08;50.16
44481;BME280;30184;42.018;23.670;2023-06-10T07:06:22;91047.50;;;22.87;50.05
44481;BME280;30184;42.018;23.670;2023-06-10T07:08:52;91046.16;;;22.69;50.55
44481;BME280;30184;42.018;23.670;2023-06-10T07:11:21;91057.81;;;22.56;51.57
44481;BME280;30184;42.018;23.670;2023-06-10T07:13:52;91048.44;;;22.41;53.28
44481;BME280;30184;42.018;23.670;2023-06-10T07:16:21;91056.06;;;22.29;54.73
44481;BME280;30184;42.018;23.670;2023-06-10T07:18:50;91050.84;;;22.20;54.34
44481;BME280;30184;42.018;23.670;2023-06-10T07:21:19;91041.91;;;22.08;54.76
44481;BME280;30184;42.018;23.670;2023-06-10T07:23:50;91039.97;;;21.98;55.77
44481;BME280;30184;42.018;23.670;2023-06-10T07:26:22;91026.56;;;21.72;56.82
44481;BME280;30184;42.018;23.670;2023-06-10T07:28:52;91051.88;;;21.81;61.01
44481;BME280;30184;42.018;23.670;2023-06-10T07:31:22;91054.38;;;21.85;61.52
44481;BME280;30184;42.018;23.670;2023-06-10T07:33:52;91056.75;;;21.64;60.13
44481;BME280;30184;42.018;23.670;2023-06-10T07:36:21;91048.56;;;21.88;59.64
44481;BME280;30184;42.018;23.670;2023-06-10T07:38:50;91020.06;;;21.69;59.40
44481;BME280;30184;42.018;23.670;2023-06-10T07:41:20;91051.00;;;22.03;59.09
44481;BME280;30184;42.018;23.670;2023-06-10T07:43:49;91054.63;;;22.17;59.29
44481;BME280;30184;42.018;23.670;2023-06-10T07:46:24;91055.81;;;22.27;60.68
44481;BME280;30184;42.018;23.670;2023-06-10T07:48:55;91056.63;;;22.52;58.66
44481;BME280;30184;42.018;23.670;2023-06-10T07:51:24;91045.38;;;22.68;57.97
44481;BME280;30184;42.018;23.670;2023-06-10T07:53:53;91055.03;;;22.86;56.53
44481;BME280;30184;42.018;23.670;2023-06-10T07:56:22;91051.25;;;23.08;55.11
44481;BME280;30184;42.018;23.670;2023-06-10T07:58:53;91049.22;;;23.33;52.17
44481;BME280;30184;42.018;23.670;2023-06-10T08:01:23;91078.88;;;23.57;53.77
44481;BME280;30184;42.018;23.670;2023-06-10T08:03:53;91063.53;;;23.74;52.21
44481;BME280;30184;42.018;23.670;2023-06-10T08:06:22;91053.56;;;23.85;52.82
44481;BME280;30184;42.018;23.670;2023-06-10T08:08:52;91046.25;;;23.87;50.91
44481;BME280;30184;42.018;23.670;2023-06-10T08:11:21;91044.59;;;23.78;52.55
44481;BME280;30184;42.018;23.670;2023-06-10T08:13:51;91041.09;;;23.78;57.47
44481;BME280;30184;42.018;23.670;2023-06-10T08:16:20;91046.72;;;23.72;56.55
44481;BME280;30184;42.018;23.670;2023-06-10T08:18:51;91048.19;;;23.55;58.30
44481;BME280;30184;42.018;23.670;2023-06-10T08:21:22;91041.31;;;23.61;57.99
44481;BME280;30184;42.018;23.670;2023-06-10T08:23:52;91042.88;;;23.75;56.73
44481;BME280;30184;42.018;23.670;2023-06-10T08:26:22;91037.69;;;23.85;55.50
44481;BME280;30184;42.018;23.670;2023-06-10T08:28:51;91039.19;;;23.86;56.22
44481;BME280;30184;42.018;23.670;2023-06-10T08:31:21;91034.19;;;23.85;52.74
44481;BME280;30184;42.018;23.670;2023-06-10T08:33:52;91019.63;;;23.97;54.08
44481;BME280;30184;42.018;23.670;2023-06-10T08:36:22;91031.69;;;24.00;52.51
44481;BME280;30184;42.018;23.670;2023-06-10T08:38:51;91021.66;;;23.97;52.74
44481;BME280;30184;42.018;23.670;2023-06-10T08:41:25;91043.16;;;24.09;50.91
44481;BME280;30184;42.018;23.670;2023-06-10T08:44:03;91021.50;;;24.08;50.18
44481;BME280;30184;42.018;23.670;2023-06-10T08:46:38;91038.53;;;24.12;51.27
44481;BME280;30184;42.018;23.670;2023-06-10T08:49:18;91030.84;;;24.24;50.51
44481;BME280;30184;42.018;23.670;2023-06-10T08:51:50;90996.50;;;23.95;50.34
44481;BME280;30184;42.018;23.670;2023-06-10T08:54:21;91033.44;;;24.35;50.26
44481;BME280;30184;42.018;23.670;2023-06-10T08:56:51;91023.63;;;24.47;50.31
44481;BME280;30184;42.018;23.670;2023-06-10T08:59:23;91026.09;;;24.50;50.52
44481;BME280;30184;42.018;23.670;2023-06-10T09:01:54;91011.09;;;24.85;49.79
44481;BME280;30184;42.018;23.670;2023-06-10T09:04:25;90994.03;;;24.95;50.13
44481;BME280;30184;42.018;23.670;2023-06-10T09:06:56;91000.22;;;25.27;50.13
44481;BME280;30184;42.018;23.670;2023-06-10T09:09:27;91003.38;;;25.44;45.90
44481;BME280;30184;42.018;23.670;2023-06-10T09:11:58;91003.81;;;25.35;45.76
44481;BME280;30184;42.018;23.670;2023-06-10T09:14:27;90996.28;;;25.09;45.97
44481;BME280;30184;42.018;23.670;2023-06-10T09:16:56;91003.31;;;24.97;45.17
44481;BME280;30184;42.018;23.670;2023-06-10T09:19:28;91000.31;;;24.82;46.00
44481;BME280;30184;42.018;23.670;2023-06-10T09:21:58;91011.19;;;24.53;45.70
44481;BME280;30184;42.018;23.670;2023-06-10T09:24:28;90998.66;;;24.47;46.10
44481;BME280;30184;42.018;23.670;2023-06-10T09:27:05;91009.16;;;24.67;46.51
44481;BME280;30184;42.018;23.670;2023-06-10T09:29:45;91008.94;;;24.78;46.18
44481;BME280;30184;42.018;23.670;2023-06-10T09:32:15;91023.78;;;24.81;45.03
44481;BME280;30184;42.018;23.670;2023-06-10T09:34:48;91016.41;;;24.70;45.47
44481;BME280;30184;42.018;23.670;2023-06-10T09:37:22;91015.34;;;24.60;45.63
44481;BME280;30184;42.018;23.670;2023-06-10T09:40:05;91007.31;;;24.57;45.52
44481;BME280;30184;42.018;23.670;2023-06-10T09:42:37;90988.09;;;24.32;45.79
44481;BME280;30184;42.018;23.670;2023-06-10T09:45:08;91004.47;;;24.17;46.05
44481;BME280;30184;42.018;23.670;2023-06-10T09:47:37;91014.53;;;24.33;45.35
44481;BME280;30184;42.018;23.670;2023-06-10T09:50:09;91017.44;;;24.28;47.68
44481;BME280;30184;42.018;23.670;2023-06-10T09:52:39;91020.09;;;24.33;47.05
44481;BME280;30184;42.018;23.670;2023-06-10T09:55:09;91046.34;;;24.13;47.26
44481;BME280;30184;42.018;23.670;2023-06-10T09:57:39;91048.00;;;24.03;47.16
44481;BME280;30184;42.018;23.670;2023-06-10T10:00:11;90985.47;;;23.57;47.62
44481;BME280;30184;42.018;23.670;2023-06-10T10:02:45;91028.00;;;23.60;48.22
44481;BME280;30184;42.018;23.670;2023-06-10T10:05:18;91029.59;;;23.12;53.99
44481;BME280;30184;42.018;23.670;2023-06-10T10:07:48;91035.97;;;22.53;56.74
44481;BME280;30184;42.018;23.670;2023-06-10T10:10:19;91023.53;;;22.41;55.61
44481;BME280;30184;42.018;23.670;2023-06-10T10:12:52;91027.25;;;22.19;55.83
44481;BME280;30184;42.018;23.670;2023-06-10T10:15:25;91040.38;;;22.13;57.26
44481;BME280;30184;42.018;23.670;2023-06-10T10:18:02;91049.81;;;21.87;59.46
44481;BME280;30184;42.018;23.670;2023-06-10T10:20:40;91060.25;;;21.65;60.17
44481;BME280;30184;42.018;23.670;2023-06-10T10:23:18;91079.94;;;21.44;60.46
44481;BME280;30184;42.018;23.670;2023-06-10T10:25:52;91035.44;;;21.18;60.86
44481;BME280;30184;42.018;23.670;2023-06-10T10:28:25;90964.69;;;20.63;63.18
44481;BME280;30184;42.018;23.670;2023-06-10T10:31:07;91063.78;;;21.13;63.60
44481;BME280;30184;42.018;23.670;2023-06-10T10:33:45;91060.59;;;20.92;64.70
44481;BME280;30184;42.018;23.670;2023-06-10T10:36:19;91058.59;;;20.87;63.78
44481;BME280;30184;42.018;23.670;2023-06-10T10:38:50;91055.34;;;20.83;63.45
44481;BME280;30184;42.018;23.670;2023-06-10T10:41:19;91063.91;;;20.74;64.91
44481;BME280;30184;42.018;23.670;2023-06-10T10:43:49;91066.94;;;20.65;67.39
44481;BME280;30184;42.018;23.670;2023-06-10T10:46:20;91051.16;;;20.54;68.98
44481;BME280;30184;42.018;23.670;2023-06-10T10:48:52;91062.44;;;20.51;73.73
44481;BME280;30184;42.018;23.670;2023-06-10T10:51:23;91036.16;;;20.27;72.65
44481;BME280;30184;42.018;23.670;2023-06-10T10:54:12;91059.41;;;20.48;73.26
44481;BME280;30184;42.018;23.670;2023-06-10T10:57:16;91055.91;;;20.54;72.11
44481;BME280;30184;42.018;23.670;2023-06-10T10:59:54;91055.41;;;20.61;73.00
44481;BME280;30184;42.018;23.670;2023-06-10T11:02:36;91055.09;;;20.81;72.49
44481;BME280;30184;42.018;23.670;2023-06-10T11:05:08;91032.34;;;20.58;72.61
44481;BME280;30184;42.018;23.670;2023-06-10T11:07:41;91056.31;;;20.91;72.30
44481;BME280;30184;42.018;23.670;2023-06-10T11:10:29;91057.31;;;20.88;73.14
44481;BME280;30184;42.018;23.670;2023-06-10T11:12:59;91055.72;;;21.15;72.06
44481;BME280;30184;42.018;23.670;2023-06-10T11:15:29;91045.16;;;21.25;71.58
44481;BME280;30184;42.018;23.670;2023-06-10T11:18:13;91025.91;;;21.08;73.43
44481;BME280;30184;42.018;23.670;2023-06-10T11:20:51;91054.19;;;21.31;73.49
44481;BME280;30184;42.018;23.670;2023-06-10T11:23:41;91055.22;;;21.22;73.41
44481;BME280;30184;42.018;23.670;2023-06-10T11:29:06;91048.72;;;21.08;73.92
44481;BME280;30184;42.018;23.670;2023-06-10T11:31:45;91058.50;;;21.04;74.44
44481;BME280;30184;42.018;23.670;2023-06-10T11:34:15;91065.09;;;20.90;73.83
44481;BME280;30184;42.018;23.670;2023-06-10T11:36:51;91058.34;;;20.79;75.95
44481;BME280;30184;42.018;23.670;2023-06-10T11:39:22;91071.16;;;20.71;76.15
44481;BME280;30184;42.018;23.670;2023-06-10T11:41:54;91067.19;;;20.56;76.67
44481;BME280;30184;42.018;23.670;2023-06-10T11:44:27;91065.19;;;20.39;77.76
44481;BME280;30184;42.018;23.670;2023-06-10T11:46:57;91078.50;;;20.35;79.00
44481;BME280;30184;42.018;23.670;2023-06-10T11:49:27;91060.22;;;20.10;79.54
44481;BME280;30184;42.018;23.670;2023-06-10T11:51:56;91058.69;;;19.87;81.10
44481;BME280;30184;42.018;23.670;2023-06-10T11:54:26;91058.19;;;19.77;80.25
44481;BME280;30184;42.018;23.670;2023-06-10T11:56:57;91052.16;;;19.51;77.44
44481;BME280;30184;42.018;23.670;2023-06-10T11:59:28;91053.63;;;19.46;75.81
44481;BME280;30184;42.018;23.670;2023-06-10T12:01:58;91055.91;;;19.59;76.33
44481;BME280;30184;42.018;23.670;2023-06-10T12:04:28;91065.66;;;19.65;77.50
44481;BME280;30184;42.018;23.670;2023-06-10T12:06:57;91048.91;;;19.52;76.23
44481;BME280;30184;42.018;23.670;2023-06-10T12:09:29;90976.03;;;19.14;78.65
44481;BME280;30184;42.018;23.670;2023-06-10T12:12:03;91058.69;;;19.75;79.35
44481;BME280;30184;42.018;23.670;2023-06-10T12:14:54;91031.88;;;19.65;80.43
44481;BME280;30184;42.018;23.670;2023-06-10T12:17:35;91050.19;;;19.79;81.07
44481;BME280;30184;42.018;23.670;2023-06-10T12:20:07;91054.69;;;19.82;81.42
44481;BME280;30184;42.018;23.670;2023-06-10T12:22:38;91038.41;;;19.79;83.04
44481;BME280;30184;42.018;23.670;2023-06-10T12:25:10;91049.44;;;19.90;83.32
44481;BME280;30184;42.018;23.670;2023-06-10T12:27:41;91033.16;;;19.69;83.68
44481;BME280;30184;42.018;23.670;2023-06-10T12:30:20;91044.69;;;19.96;84.59
44481;BME280;30184;42.018;23.670;2023-06-10T12:32:50;91043.41;;;20.13;84.36
44481;BME280;30184;42.018;23.670;2023-06-10T12:35:21;90871.78;;;19.22;83.76
44481;BME280;30184;42.018;23.670;2023-06-10T12:37:56;91039.34;;;20.65;83.36
44481;BME280;30184;42.018;23.670;2023-06-10T12:40:29;91018.50;;;20.80;82.02
44481;BME280;30184;42.018;23.670;2023-06-10T12:42:59;91034.19;;;21.08;78.37
44481;BME280;30184;42.018;23.670;2023-06-10T12:45:29;90869.13;;;20.19;76.09
44481;BME280;30184;42.018;23.670;2023-06-10T12:48:06;90966.59;;;20.84;73.93
44481;BME280;30184;42.018;23.670;2023-06-10T12:50:38;91031.06;;;21.39;73.11
44481;BME280;30184;42.018;23.670;2023-06-10T12:53:08;91021.22;;;21.44;73.57
44481;BME280;30184;42.018;23.670;2023-06-10T12:55:40;91024.75;;;21.44;73.74
44481;BME280;30184;42.018;23.670;2023-06-10T12:58:09;91003.53;;;21.22;74.93
44481;BME280;30184;42.018;23.670;2023-06-10T13:00:39;91016.75;;;21.41;73.58
44481;BME280;30184;42.018;23.670;2023-06-10T13:03:10;91019.78;;;21.37;74.32
44481;BME280;30184;42.018;23.670;2023-06-10T13:05:40;91021.28;;;21.33;74.65
44481;BME280;30184;42.018;23.670;2023-06-10T13:08:09;91021.97;;;21.44;74.11
44481;BME280;30184;42.018;23.670;2023-06-10T13:10:40;91018.91;;;21.59;75.14
44481;BME280;30184;42.018;23.670;2023-06-10T13:13:10;91033.72;;;21.56;73.95
44481;BME280;30184;42.018;23.670;2023-06-10T13:15:42;91024.94;;;21.57;72.72